Briefing drone pour Les andelys

Rechercher une autre localisation

Conditions de vol :


Nous sommes le : Dimanche 24 octobre 2021
Il est 00:33 UTC (02:33 LT)

Lever de soleil : 06:03 UTC (08:03 LT)
Coucher de soleil : 17:13 UTC (19:13 LT)

Météo

L'essentiel des conditions de vol

VIGILANCE MÉTÉO FRANCE - Eure (27)
Pas de vigilances particulieres
CARTE TEMSI
CARTES DES FRONTS
METAR de LFOP
LFOP 240030Z AUTO 10005KT CAVOK 03/02 Q1024

Date d'émission: 24/10/2021
Heure d'émission: 00:30 UTC
Vent: 100° pour 5 KT (9 km/h)
Visibilité horizontale: > 10 km
Plafond : Plafond et visibilité OK (CAVOK)
Température: 3 °C
Point de rosée: 2 °C
Humidité: 93%
Pression (QNH): 1024 hPa
TAF de LFOP
LFOP 232002Z 2320/2418 CNL

Conditions prévues :

Heure d'émission : Bulletin éffectué le 23 à 20:00 UTC
Prévision : Valide du 23 a 20:00 UTC au 24 a 18:00 UTC
Nuages : à 0ft (0 m)
WEBCAM POUR LES ANDELYS

Réglementation

Voler en sécurité

CARTES AERONAUTIQUE 1/500.000
CARTES VAC (LFOP)
SUP AIP




Chargement des AIP...
NOTAM (LES ANDELYS + Terrain à proximité / FIR )




Chargement des NOTAMS...
CONTACT PREFECTURE 27


Avertissement : Les données mises à disposition sont indicatives. Oxygène Drone ne pourra être tenu responsable de dégâts causés aux biens et aux personnes.